AFL081 UUYH-USTR
Flight info
| Callsign | AFL081 |
|---|---|
| Flight time | 1h 21m |
| Altitude | 35000 |
| Route | OKRAN3Q OKRAN M59 ERUSA M168 BIBLI N987 GOREN GOREN1M |
| Aircraft | A321/M-SDE3FGHIRWY/LB1 |
Departure
| Time | 2026-04-28 17:00 |
|---|---|
| Airport | Ukhta Airport (UUYH) |
Arrival
| Time | 2026-04-28 18:21 |
|---|---|
| Airport | Roshchino International Airport (USTR) |
| Time | Latitude | Longitude | Altitude | Speed | Heading |
|---|---|---|---|---|---|
| 2026-04-28 16:48 | 63.55678 | 53.80294 | 471 ft | 0 kts | 257° |
| 2026-04-28 16:58 | 63.55678 | 53.80290 | 470 ft | 2 kts | 257° |
| 2026-04-28 16:58 | 63.55674 | 53.80247 | 470 ft | 2 kts | 264° |
| 2026-04-28 16:58 | 63.55683 | 53.80196 | 477 ft | 6 kts | 310° |
| 2026-04-28 16:58 | 63.55734 | 53.80187 | 472 ft | 8 kts | 9° |
| 2026-04-28 16:59 | 63.55785 | 53.80162 | 473 ft | 7 kts | 332° |
| 2026-04-28 16:59 | 63.55828 | 53.80105 | 475 ft | 9 kts | 324° |
| 2026-04-28 16:59 | 63.55879 | 53.80024 | 473 ft | 7 kts | 324° |
| 2026-04-28 16:59 | 63.55933 | 53.79982 | 477 ft | 14 kts | 358° |
| 2026-04-28 17:00 | 63.56194 | 53.80142 | 470 ft | 82 kts | 17° |
| 2026-04-28 17:00 | 63.57028 | 53.80663 | 455 ft | 161 kts | 15° |
| 2026-04-28 17:00 | 63.58227 | 53.81437 | 1010 ft | 179 kts | 17° |
| 2026-04-28 17:00 | 63.59428 | 53.82179 | 1971 ft | 179 kts | 17° |
| 2026-04-28 17:01 | 63.60690 | 53.82952 | 2278 ft | 198 kts | 16° |
| 2026-04-28 17:01 | 63.62086 | 53.83814 | 2442 ft | 218 kts | 16° |
| 2026-04-28 17:01 | 63.63557 | 53.84968 | 2563 ft | 237 kts | 34° |
| 2026-04-28 17:01 | 63.64616 | 53.87867 | 2702 ft | 251 kts | 76° |
| 2026-04-28 17:02 | 63.64706 | 53.91796 | 3233 ft | 254 kts | 104° |
| 2026-04-28 17:02 | 63.64275 | 53.95663 | 4042 ft | 256 kts | 112° |
| 2026-04-28 17:02 | 63.63706 | 53.99490 | 4890 ft | 259 kts | 113° |
| 2026-04-28 17:02 | 63.63131 | 54.03374 | 5696 ft | 264 kts | 112° |
| 2026-04-28 17:03 | 63.62075 | 54.11479 | 7237 ft | 274 kts | 109° |
| 2026-04-28 17:03 | 63.61595 | 54.15673 | 8023 ft | 278 kts | 108° |
| 2026-04-28 17:03 | 63.61132 | 54.19937 | 8809 ft | 282 kts | 108° |
| 2026-04-28 17:04 | 63.60207 | 54.28635 | 10034 ft | 302 kts | 108° |
| 2026-04-28 17:04 | 63.59700 | 54.33386 | 10213 ft | 325 kts | 107° |
| 2026-04-28 17:05 | 63.58580 | 54.43929 | 10612 ft | 364 kts | 107° |
| 2026-04-28 17:05 | 63.57992 | 54.49530 | 11225 ft | 370 kts | 107° |
| 2026-04-28 17:05 | 63.57398 | 54.55181 | 11932 ft | 373 kts | 107° |
| 2026-04-28 17:06 | 63.56179 | 54.66568 | 13379 ft | 378 kts | 107° |
| 2026-04-28 17:06 | 63.55560 | 54.72250 | 14006 ft | 381 kts | 107° |
| 2026-04-28 17:06 | 63.54274 | 54.83900 | 15141 ft | 387 kts | 107° |
| 2026-04-28 17:07 | 63.53623 | 54.89792 | 15697 ft | 391 kts | 107° |
| 2026-04-28 17:07 | 63.52971 | 54.95734 | 16248 ft | 395 kts | 107° |
| 2026-04-28 17:07 | 63.52308 | 55.01756 | 16815 ft | 398 kts | 107° |
| 2026-04-28 17:07 | 63.51639 | 55.07801 | 17365 ft | 402 kts | 107° |
| 2026-04-28 17:08 | 63.50956 | 55.13917 | 17923 ft | 405 kts | 107° |
| 2026-04-28 17:08 | 63.50265 | 55.20061 | 18417 ft | 409 kts | 107° |
| 2026-04-28 17:08 | 63.49570 | 55.26179 | 18900 ft | 410 kts | 107° |
| 2026-04-28 17:08 | 63.48882 | 55.32230 | 20118 ft | 391 kts | 107° |
| 2026-04-28 17:09 | 63.48231 | 55.37993 | 21475 ft | 371 kts | 107° |
| 2026-04-28 17:09 | 63.47796 | 55.43544 | 22864 ft | 353 kts | 101° |
| 2026-04-28 17:09 | 63.47503 | 55.48853 | 23999 ft | 336 kts | 101° |
| 2026-04-28 17:09 | 63.47176 | 55.53992 | 24588 ft | 331 kts | 108° |
| 2026-04-28 17:10 | 63.46341 | 55.58750 | 24820 ft | 332 kts | 123° |
| 2026-04-28 17:10 | 63.45050 | 55.63076 | 24950 ft | 337 kts | 137° |
| 2026-04-28 17:10 | 63.43408 | 55.66811 | 25082 ft | 347 kts | 139° |
| 2026-04-28 17:10 | 63.41672 | 55.70685 | 25198 ft | 358 kts | 140° |
| 2026-04-28 17:11 | 63.39883 | 55.74667 | 25327 ft | 368 kts | 139° |
| 2026-04-28 17:11 | 63.38049 | 55.78743 | 25454 ft | 377 kts | 139° |
| 2026-04-28 17:11 | 63.36163 | 55.82934 | 25582 ft | 387 kts | 139° |
| 2026-04-28 17:11 | 63.34237 | 55.87223 | 25711 ft | 396 kts | 139° |
| 2026-04-28 17:12 | 63.32271 | 55.91597 | 25846 ft | 404 kts | 139° |
| 2026-04-28 17:12 | 63.30257 | 55.96072 | 25975 ft | 412 kts | 139° |
| 2026-04-28 17:12 | 63.28200 | 56.00624 | 26109 ft | 420 kts | 139° |
| 2026-04-28 17:12 | 63.26107 | 56.05239 | 26235 ft | 428 kts | 139° |
| 2026-04-28 17:13 | 63.23977 | 56.09930 | 26366 ft | 435 kts | 139° |
| 2026-04-28 17:13 | 63.21813 | 56.14696 | 26507 ft | 441 kts | 139° |
| 2026-04-28 17:13 | 63.19641 | 56.19469 | 26638 ft | 447 kts | 139° |
| 2026-04-28 17:13 | 63.17416 | 56.24337 | 26884 ft | 450 kts | 139° |
| 2026-04-28 17:14 | 63.15166 | 56.29155 | 27242 ft | 448 kts | 143° |
| 2026-04-28 17:14 | 63.12718 | 56.33369 | 27651 ft | 444 kts | 146° |
| 2026-04-28 17:14 | 63.10308 | 56.37400 | 28837 ft | 424 kts | 146° |
| 2026-04-28 17:14 | 63.08010 | 56.41230 | 30055 ft | 404 kts | 147° |
| 2026-04-28 17:15 | 63.05820 | 56.44862 | 31083 ft | 383 kts | 147° |
| 2026-04-28 17:15 | 63.03723 | 56.48327 | 31866 ft | 372 kts | 147° |
| 2026-04-28 17:15 | 63.01654 | 56.51727 | 32218 ft | 370 kts | 147° |
| 2026-04-28 17:15 | 62.99584 | 56.55118 | 32458 ft | 371 kts | 147° |
| 2026-04-28 17:16 | 62.97498 | 56.58530 | 32623 ft | 374 kts | 147° |
| 2026-04-28 17:16 | 62.95429 | 56.61914 | 32740 ft | 377 kts | 147° |
| 2026-04-28 17:16 | 62.91177 | 56.68859 | 32985 ft | 383 kts | 147° |
| 2026-04-28 17:17 | 62.89022 | 56.72363 | 33108 ft | 387 kts | 147° |
| 2026-04-28 17:17 | 62.86846 | 56.75902 | 33242 ft | 390 kts | 147° |
| 2026-04-28 17:17 | 62.84680 | 56.79426 | 33374 ft | 393 kts | 147° |
| 2026-04-28 17:17 | 62.82468 | 56.83026 | 33504 ft | 396 kts | 147° |
| 2026-04-28 17:18 | 62.80243 | 56.86629 | 33649 ft | 399 kts | 147° |
| 2026-04-28 17:18 | 62.78022 | 56.90216 | 33776 ft | 402 kts | 147° |
| 2026-04-28 17:18 | 62.75763 | 56.93863 | 33891 ft | 405 kts | 147° |
| 2026-04-28 17:18 | 62.73485 | 56.97536 | 34015 ft | 408 kts | 147° |
| 2026-04-28 17:19 | 62.71181 | 57.01246 | 34127 ft | 411 kts | 147° |
| 2026-04-28 17:19 | 62.68874 | 57.04943 | 34232 ft | 413 kts | 147° |
| 2026-04-28 17:19 | 62.64228 | 57.12374 | 34437 ft | 418 kts | 148° |
| 2026-04-28 17:20 | 62.61876 | 57.16128 | 34556 ft | 421 kts | 148° |
| 2026-04-28 17:20 | 62.60306 | 57.18630 | 34649 ft | 422 kts | 148° |
| 2026-04-28 17:20 | 62.57116 | 57.23689 | 34770 ft | 426 kts | 148° |
| 2026-04-28 17:20 | 62.54708 | 57.27483 | 34784 ft | 431 kts | 148° |
| 2026-04-28 17:21 | 62.49789 | 57.35231 | 34792 ft | 442 kts | 148° |
| 2026-04-28 17:22 | 62.42250 | 57.47090 | 34777 ft | 453 kts | 148° |
| 2026-04-28 17:22 | 62.37120 | 57.55118 | 34793 ft | 455 kts | 148° |
| 2026-04-28 17:23 | 62.29424 | 57.67110 | 34802 ft | 454 kts | 148° |
| 2026-04-28 17:23 | 62.24288 | 57.75043 | 34805 ft | 455 kts | 148° |
| 2026-04-28 17:24 | 62.19160 | 57.82938 | 34808 ft | 455 kts | 148° |
| 2026-04-28 17:24 | 62.14003 | 57.90836 | 34805 ft | 454 kts | 149° |
| 2026-04-28 17:25 | 62.06321 | 58.02522 | 34819 ft | 453 kts | 149° |
| 2026-04-28 17:26 | 62.01169 | 58.10339 | 34821 ft | 453 kts | 149° |
| 2026-04-28 17:26 | 61.96046 | 58.18102 | 34820 ft | 453 kts | 149° |
| 2026-04-28 17:27 | 61.90878 | 58.25881 | 34832 ft | 452 kts | 149° |
| 2026-04-28 17:27 | 61.85778 | 58.33511 | 34831 ft | 451 kts | 150° |
| 2026-04-28 17:28 | 61.80619 | 58.41187 | 34841 ft | 451 kts | 150° |
| 2026-04-28 17:28 | 61.72913 | 58.52600 | 34858 ft | 451 kts | 150° |
| 2026-04-28 17:29 | 61.67783 | 58.60171 | 34860 ft | 452 kts | 150° |
| 2026-04-28 17:30 | 61.60031 | 58.71550 | 34870 ft | 451 kts | 150° |
| 2026-04-28 17:30 | 61.52336 | 58.82791 | 34859 ft | 450 kts | 150° |
| 2026-04-28 17:31 | 61.44605 | 58.93974 | 34853 ft | 450 kts | 150° |
| 2026-04-28 17:32 | 61.36894 | 59.05133 | 34869 ft | 447 kts | 151° |
| 2026-04-28 17:32 | 61.31795 | 59.12458 | 34877 ft | 447 kts | 151° |
| 2026-04-28 17:33 | 61.26652 | 59.19780 | 34875 ft | 447 kts | 151° |
| 2026-04-28 17:33 | 61.23247 | 59.24615 | 34881 ft | 447 kts | 151° |
| 2026-04-28 17:34 | 61.16407 | 59.34308 | 34849 ft | 446 kts | 152° |
| 2026-04-28 17:34 | 61.11269 | 59.41561 | 34889 ft | 445 kts | 152° |
| 2026-04-28 17:35 | 61.06145 | 59.48755 | 34905 ft | 445 kts | 152° |
| 2026-04-28 17:35 | 61.01032 | 59.55912 | 34904 ft | 444 kts | 152° |
| 2026-04-28 17:36 | 60.95921 | 59.63043 | 34897 ft | 443 kts | 152° |
| 2026-04-28 17:36 | 60.90806 | 59.70150 | 34872 ft | 443 kts | 152° |
| 2026-04-28 17:37 | 60.85725 | 59.77173 | 34889 ft | 442 kts | 153° |
| 2026-04-28 17:37 | 60.80629 | 59.84201 | 34902 ft | 441 kts | 153° |
| 2026-04-28 17:38 | 60.75524 | 59.91202 | 34905 ft | 441 kts | 153° |
| 2026-04-28 17:38 | 60.70424 | 59.98176 | 34908 ft | 440 kts | 153° |
| 2026-04-28 17:39 | 60.65328 | 60.05122 | 34878 ft | 440 kts | 153° |
| 2026-04-28 17:40 | 60.57713 | 60.15440 | 34910 ft | 438 kts | 153° |
| 2026-04-28 17:40 | 60.52648 | 60.22280 | 34913 ft | 438 kts | 153° |
| 2026-04-28 17:41 | 60.47585 | 60.29091 | 34918 ft | 437 kts | 153° |
| 2026-04-28 17:41 | 60.42488 | 60.35896 | 34918 ft | 437 kts | 153° |
| 2026-04-28 17:42 | 60.38269 | 60.41528 | 34891 ft | 437 kts | 154° |
| 2026-04-28 17:42 | 60.32358 | 60.49401 | 34905 ft | 437 kts | 154° |
| 2026-04-28 17:43 | 60.28115 | 60.55004 | 34915 ft | 436 kts | 154° |
| 2026-04-28 17:43 | 60.23048 | 60.61669 | 34917 ft | 436 kts | 154° |
| 2026-04-28 17:44 | 60.17956 | 60.68379 | 34927 ft | 436 kts | 154° |
| 2026-04-28 17:44 | 60.12891 | 60.75024 | 34899 ft | 436 kts | 154° |
| 2026-04-28 17:45 | 60.07793 | 60.81673 | 34915 ft | 436 kts | 154° |
| 2026-04-28 17:45 | 60.02701 | 60.88289 | 34918 ft | 436 kts | 154° |
| 2026-04-28 17:46 | 59.97639 | 60.94832 | 34922 ft | 436 kts | 154° |
| 2026-04-28 17:46 | 59.92553 | 61.01382 | 34920 ft | 436 kts | 154° |
| 2026-04-28 17:47 | 59.87451 | 61.07955 | 34904 ft | 436 kts | 154° |
| 2026-04-28 17:47 | 59.82338 | 61.14510 | 34914 ft | 436 kts | 154° |
| 2026-04-28 17:48 | 59.77251 | 61.20987 | 34936 ft | 436 kts | 154° |
| 2026-04-28 17:48 | 59.72128 | 61.27498 | 34936 ft | 437 kts | 154° |
| 2026-04-28 17:49 | 59.66998 | 61.34002 | 34891 ft | 436 kts | 155° |
| 2026-04-28 17:49 | 59.61931 | 61.40406 | 34936 ft | 436 kts | 155° |
| 2026-04-28 17:50 | 59.56784 | 61.46863 | 34937 ft | 436 kts | 155° |
| 2026-04-28 17:50 | 59.51694 | 61.53239 | 34942 ft | 436 kts | 155° |
| 2026-04-28 17:51 | 59.46570 | 61.59637 | 34943 ft | 436 kts | 155° |
| 2026-04-28 17:51 | 59.41434 | 61.66019 | 34899 ft | 436 kts | 155° |
| 2026-04-28 17:52 | 59.36313 | 61.72355 | 34947 ft | 437 kts | 155° |
| 2026-04-28 17:52 | 59.28591 | 61.81889 | 34952 ft | 437 kts | 155° |
| 2026-04-28 17:53 | 59.23421 | 61.88231 | 34957 ft | 438 kts | 155° |
| 2026-04-28 17:53 | 59.18288 | 61.94509 | 34967 ft | 438 kts | 155° |
| 2026-04-28 17:54 | 59.13123 | 62.00814 | 34969 ft | 438 kts | 155° |
| 2026-04-28 17:54 | 59.07956 | 62.07097 | 34973 ft | 438 kts | 155° |
| 2026-04-28 17:55 | 59.02787 | 62.13357 | 34974 ft | 438 kts | 156° |
| 2026-04-28 17:55 | 58.97612 | 62.19598 | 34974 ft | 438 kts | 156° |
| 2026-04-28 17:56 | 58.92440 | 62.25815 | 34908 ft | 437 kts | 156° |
| 2026-04-28 17:56 | 58.87286 | 62.31979 | 34958 ft | 437 kts | 156° |
| 2026-04-28 17:57 | 58.82098 | 62.38159 | 34960 ft | 437 kts | 156° |
| 2026-04-28 17:57 | 58.76931 | 62.44304 | 34959 ft | 437 kts | 156° |
| 2026-04-28 17:58 | 58.71743 | 62.50456 | 34960 ft | 437 kts | 156° |
| 2026-04-28 17:58 | 58.66536 | 62.56607 | 34929 ft | 438 kts | 156° |
| 2026-04-28 17:59 | 58.61376 | 62.62681 | 34959 ft | 438 kts | 156° |
| 2026-04-28 17:59 | 58.56164 | 62.68790 | 34972 ft | 438 kts | 156° |
| 2026-04-28 18:00 | 58.51430 | 62.76350 | 34972 ft | 456 kts | 141° |
| 2026-04-28 18:00 | 58.47153 | 62.85304 | 34936 ft | 455 kts | 142° |
| 2026-04-28 18:01 | 58.42866 | 62.94219 | 34971 ft | 456 kts | 142° |
| 2026-04-28 18:01 | 58.38557 | 63.03142 | 34972 ft | 457 kts | 142° |
| 2026-04-28 18:02 | 58.34341 | 63.11875 | 34626 ft | 440 kts | 142° |
| 2026-04-28 18:02 | 58.32265 | 63.16151 | 34390 ft | 438 kts | 143° |
| 2026-04-28 18:02 | 58.30215 | 63.20348 | 33729 ft | 440 kts | 143° |
| 2026-04-28 18:03 | 58.28103 | 63.24641 | 32823 ft | 443 kts | 143° |
| 2026-04-28 18:03 | 58.25988 | 63.28944 | 31976 ft | 445 kts | 143° |
| 2026-04-28 18:03 | 58.23881 | 63.33227 | 31084 ft | 448 kts | 143° |
| 2026-04-28 18:03 | 58.21755 | 63.37555 | 30239 ft | 448 kts | 143° |
| 2026-04-28 18:04 | 58.19613 | 63.41918 | 29177 ft | 451 kts | 143° |
| 2026-04-28 18:04 | 58.17466 | 63.46282 | 28179 ft | 452 kts | 143° |
| 2026-04-28 18:04 | 58.15311 | 63.50648 | 27213 ft | 453 kts | 143° |
| 2026-04-28 18:04 | 58.13169 | 63.54963 | 26142 ft | 456 kts | 143° |
| 2026-04-28 18:05 | 58.10980 | 63.59351 | 24992 ft | 461 kts | 142° |
| 2026-04-28 18:05 | 58.09514 | 63.62284 | 24246 ft | 463 kts | 142° |
| 2026-04-28 18:05 | 58.06525 | 63.68190 | 22910 ft | 462 kts | 142° |
| 2026-04-28 18:05 | 58.04317 | 63.72513 | 22131 ft | 455 kts | 142° |
| 2026-04-28 18:06 | 58.02124 | 63.76778 | 21392 ft | 447 kts | 142° |
| 2026-04-28 18:06 | 57.99968 | 63.80955 | 20570 ft | 443 kts | 142° |
| 2026-04-28 18:06 | 57.97858 | 63.85038 | 19789 ft | 438 kts | 142° |
| 2026-04-28 18:06 | 57.95736 | 63.89141 | 19064 ft | 433 kts | 142° |
| 2026-04-28 18:07 | 57.93635 | 63.93195 | 18354 ft | 429 kts | 142° |
| 2026-04-28 18:07 | 57.91563 | 63.97187 | 17593 ft | 423 kts | 142° |
| 2026-04-28 18:07 | 57.89518 | 64.01127 | 16930 ft | 416 kts | 142° |
| 2026-04-28 18:07 | 57.87535 | 64.04944 | 16284 ft | 410 kts | 142° |
| 2026-04-28 18:08 | 57.85552 | 64.08754 | 15669 ft | 403 kts | 142° |
| 2026-04-28 18:08 | 57.83601 | 64.12493 | 15069 ft | 397 kts | 142° |
| 2026-04-28 18:08 | 57.81677 | 64.16147 | 14483 ft | 389 kts | 143° |
| 2026-04-28 18:08 | 57.79763 | 64.19690 | 13904 ft | 382 kts | 143° |
| 2026-04-28 18:09 | 57.77896 | 64.23089 | 13333 ft | 375 kts | 143° |
| 2026-04-28 18:09 | 57.76027 | 64.26462 | 12829 ft | 368 kts | 143° |
| 2026-04-28 18:09 | 57.74190 | 64.29768 | 12297 ft | 362 kts | 143° |
| 2026-04-28 18:09 | 57.72405 | 64.32982 | 11784 ft | 356 kts | 143° |
| 2026-04-28 18:10 | 57.70623 | 64.36198 | 11318 ft | 351 kts | 143° |
| 2026-04-28 18:10 | 57.68903 | 64.39321 | 11174 ft | 336 kts | 143° |
| 2026-04-28 18:10 | 57.67282 | 64.42273 | 11058 ft | 322 kts | 143° |
| 2026-04-28 18:10 | 57.65710 | 64.45133 | 10932 ft | 309 kts | 144° |
| 2026-04-28 18:11 | 57.64195 | 64.47883 | 10801 ft | 296 kts | 144° |
| 2026-04-28 18:11 | 57.62741 | 64.50512 | 10680 ft | 285 kts | 145° |
| 2026-04-28 18:11 | 57.61346 | 64.53021 | 10424 ft | 278 kts | 145° |
| 2026-04-28 18:11 | 57.59959 | 64.55509 | 10173 ft | 275 kts | 145° |
| 2026-04-28 18:12 | 57.58577 | 64.57981 | 9935 ft | 275 kts | 144° |
| 2026-04-28 18:12 | 57.57183 | 64.60461 | 9803 ft | 278 kts | 144° |
| 2026-04-28 18:12 | 57.55782 | 64.62956 | 9672 ft | 279 kts | 144° |
| 2026-04-28 18:12 | 57.54381 | 64.65454 | 9538 ft | 278 kts | 144° |
| 2026-04-28 18:13 | 57.52985 | 64.67950 | 9402 ft | 277 kts | 144° |
| 2026-04-28 18:13 | 57.51598 | 64.70432 | 9232 ft | 276 kts | 144° |
| 2026-04-28 18:13 | 57.50236 | 64.72877 | 8910 ft | 274 kts | 144° |
| 2026-04-28 18:13 | 57.48880 | 64.75351 | 8552 ft | 273 kts | 143° |
| 2026-04-28 18:14 | 57.47565 | 64.77886 | 8188 ft | 272 kts | 142° |
| 2026-04-28 18:14 | 57.46275 | 64.80432 | 7828 ft | 270 kts | 142° |
| 2026-04-28 18:14 | 57.44989 | 64.82979 | 7471 ft | 268 kts | 142° |
| 2026-04-28 18:14 | 57.43717 | 64.85493 | 7114 ft | 266 kts | 142° |
| 2026-04-28 18:15 | 57.42449 | 64.87985 | 6763 ft | 264 kts | 142° |
| 2026-04-28 18:15 | 57.41202 | 64.90420 | 6424 ft | 262 kts | 142° |
| 2026-04-28 18:15 | 57.39952 | 64.92849 | 6061 ft | 259 kts | 142° |
| 2026-04-28 18:15 | 57.38708 | 64.95259 | 5709 ft | 256 kts | 142° |
| 2026-04-28 18:16 | 57.37480 | 64.97641 | 5345 ft | 253 kts | 142° |
| 2026-04-28 18:16 | 57.36272 | 64.99987 | 5028 ft | 249 kts | 142° |
| 2026-04-28 18:16 | 57.35083 | 65.02260 | 4693 ft | 246 kts | 143° |
| 2026-04-28 18:16 | 57.33883 | 65.04525 | 4355 ft | 243 kts | 143° |
| 2026-04-28 18:17 | 57.32712 | 65.06719 | 4045 ft | 241 kts | 143° |
| 2026-04-28 18:17 | 57.31538 | 65.08914 | 3725 ft | 238 kts | 143° |
| 2026-04-28 18:17 | 57.30376 | 65.11086 | 3403 ft | 235 kts | 142° |
| 2026-04-28 18:17 | 57.29230 | 65.13229 | 3056 ft | 233 kts | 143° |
| 2026-04-28 18:18 | 57.28121 | 65.15315 | 2748 ft | 218 kts | 143° |
| 2026-04-28 18:18 | 57.27109 | 65.17229 | 2473 ft | 207 kts | 143° |
| 2026-04-28 18:18 | 57.26110 | 65.19098 | 2178 ft | 199 kts | 142° |
| 2026-04-28 18:18 | 57.25486 | 65.20269 | 2018 ft | 186 kts | 142° |
| 2026-04-28 18:19 | 57.24374 | 65.22366 | 1727 ft | 156 kts | 142° |
| 2026-04-28 18:19 | 57.23650 | 65.23729 | 1500 ft | 143 kts | 143° |
| 2026-04-28 18:19 | 57.22964 | 65.25004 | 1334 ft | 137 kts | 142° |
| 2026-04-28 18:19 | 57.22299 | 65.26232 | 1175 ft | 136 kts | 141° |
| 2026-04-28 18:20 | 57.21632 | 65.27457 | 1022 ft | 135 kts | 141° |
| 2026-04-28 18:20 | 57.20952 | 65.28706 | 841 ft | 136 kts | 141° |
| 2026-04-28 18:20 | 57.20277 | 65.29952 | 672 ft | 137 kts | 136° |
| 2026-04-28 18:20 | 57.19607 | 65.31195 | 475 ft | 139 kts | 136° |
| 2026-04-28 18:21 | 57.18931 | 65.32467 | 368 ft | 138 kts | 136° |
| 2026-04-28 18:21 | 57.18296 | 65.33640 | 337 ft | 108 kts | 135° |
| 2026-04-28 18:21 | 57.17892 | 65.34383 | 347 ft | 66 kts | 135° |
| 2026-04-28 18:21 | 57.17586 | 65.34958 | 335 ft | 49 kts | 135° |
| 2026-04-28 18:22 | 57.17391 | 65.35320 | 352 ft | 35 kts | 134° |
| 2026-04-28 18:22 | 57.17301 | 65.35546 | 338 ft | 16 kts | 85° |
| 2026-04-28 18:22 | 57.17326 | 65.35610 | 339 ft | 2 kts | 39° |
| 2026-04-28 18:22 | 57.17375 | 65.35679 | 335 ft | 14 kts | 25° |
| 2026-04-28 18:23 | 57.17463 | 65.35711 | 338 ft | 12 kts | 346° |
| 2026-04-28 18:23 | 57.17527 | 65.35624 | 336 ft | 11 kts | 316° |
| 2026-04-28 18:23 | 57.17577 | 65.35530 | 340 ft | 10 kts | 314° |
| 2026-04-28 18:23 | 57.17628 | 65.35436 | 337 ft | 13 kts | 314° |
| 2026-04-28 18:24 | 57.17707 | 65.35289 | 335 ft | 20 kts | 316° |
| 2026-04-28 18:24 | 57.17741 | 65.35229 | 337 ft | 22 kts | 316° |
| 2026-04-28 18:24 | 57.17939 | 65.34861 | 338 ft | 13 kts | 316° |
| 2026-04-28 18:24 | 57.17992 | 65.34865 | 340 ft | 10 kts | 44° |
| 2026-04-28 18:25 | 57.18011 | 65.34900 | 335 ft | 5 kts | 45° |
| 2026-04-28 18:25 | 57.18017 | 65.34911 | 336 ft | 0 kts | 45° |